Terminal Aerodrome Forecast
Issued by NWS Charleston, WV

Current Version | Previous Version | Text Only | Print | Product List | Glossary Off
Versions: 1 2 3 4 5 6 7 8 9 10 11 12 13 14 15 16 17 18 19 20 21 22 23 24

000
FTUS41 KRLX 271500 AAA
TAFPKB
TAF AMD
KPKB 271503Z 2715/2812 VRB04KT P6SM SCT050
     FM271900 VRB03KT P6SM VCTS BKN040CB
     FM280000 33004KT P6SM BKN040
     FM280200 VRB03KT P6SM SCT045
     FM280700 00000KT 5SM BR SCT035
     FM280900 00000KT 3SM BR SCT035=

USA.gov is the U.S. government's official web portal to all federal, state and local government web resources and services.